sensor_id;sensor_type;location;lat;lon;timestamp;P1;durP1;ratioP1;P2;durP2;ratioP2
10719;SDS011;5411;58.386;15.560;2023-05-10T00:01:30;4.23;;;3.83;;
10719;SDS011;5411;58.386;15.560;2023-05-10T00:04:00;4.90;;;4.17;;
10719;SDS011;5411;58.386;15.560;2023-05-10T00:06:28;5.10;;;3.67;;
10719;SDS011;5411;58.386;15.560;2023-05-10T00:08:56;6.70;;;4.10;;
10719;SDS011;5411;58.386;15.560;2023-05-10T00:11:25;5.90;;;4.20;;
10719;SDS011;5411;58.386;15.560;2023-05-10T00:13:55;4.73;;;4.03;;
10719;SDS011;5411;58.386;15.560;2023-05-10T00:16:23;6.10;;;3.90;;
10719;SDS011;5411;58.386;15.560;2023-05-10T00:18:52;5.70;;;4.47;;
10719;SDS011;5411;58.386;15.560;2023-05-10T00:21:20;6.00;;;3.80;;
10719;SDS011;5411;58.386;15.560;2023-05-10T00:23:49;5.20;;;3.93;;
10719;SDS011;5411;58.386;15.560;2023-05-10T00:26:17;6.60;;;4.10;;
10719;SDS011;5411;58.386;15.560;2023-05-10T00:28:45;5.03;;;3.83;;
10719;SDS011;5411;58.386;15.560;2023-05-10T00:31:15;7.83;;;3.70;;
10719;SDS011;5411;58.386;15.560;2023-05-10T00:33:43;4.60;;;3.90;;
10719;SDS011;5411;58.386;15.560;2023-05-10T00:36:12;6.07;;;4.20;;
10719;SDS011;5411;58.386;15.560;2023-05-10T00:38:40;4.40;;;4.00;;
10719;SDS011;5411;58.386;15.560;2023-05-10T00:41:08;4.33;;;3.93;;
10719;SDS011;5411;58.386;15.560;2023-05-10T00:43:36;6.00;;;4.33;;
10719;SDS011;5411;58.386;15.560;2023-05-10T00:46:07;6.47;;;4.97;;
10719;SDS011;5411;58.386;15.560;2023-05-10T00:48:37;7.93;;;4.70;;
10719;SDS011;5411;58.386;15.560;2023-05-10T00:51:08;7.83;;;4.87;;
10719;SDS011;5411;58.386;15.560;2023-05-10T00:53:37;6.00;;;4.90;;
10719;SDS011;5411;58.386;15.560;2023-05-10T00:56:05;5.37;;;4.57;;
10719;SDS011;5411;58.386;15.560;2023-05-10T00:58:34;5.50;;;4.10;;
10719;SDS011;5411;58.386;15.560;2023-05-10T01:01:02;7.13;;;4.67;;
10719;SDS011;5411;58.386;15.560;2023-05-10T01:03:32;7.73;;;4.40;;
10719;SDS011;5411;58.386;15.560;2023-05-10T01:06:02;9.73;;;4.90;;
10719;SDS011;5411;58.386;15.560;2023-05-10T01:08:31;5.90;;;4.73;;
10719;SDS011;5411;58.386;15.560;2023-05-10T01:10:59;6.67;;;5.03;;
10719;SDS011;5411;58.386;15.560;2023-05-10T01:13:30;6.07;;;4.60;;
10719;SDS011;5411;58.386;15.560;2023-05-10T01:16:00;5.90;;;4.80;;
10719;SDS011;5411;58.386;15.560;2023-05-10T01:18:29;5.07;;;4.50;;
10719;SDS011;5411;58.386;15.560;2023-05-10T01:21:04;6.23;;;4.87;;
10719;SDS011;5411;58.386;15.560;2023-05-10T01:23:50;6.30;;;5.10;;
10719;SDS011;5411;58.386;15.560;2023-05-10T01:26:52;5.13;;;4.60;;
10719;SDS011;5411;58.386;15.560;2023-05-10T01:29:53;9.73;;;4.90;;
10719;SDS011;5411;58.386;15.560;2023-05-10T01:32:44;6.57;;;5.37;;
10719;SDS011;5411;58.386;15.560;2023-05-10T01:35:23;5.80;;;4.43;;
10719;SDS011;5411;58.386;15.560;2023-05-10T01:37:59;6.40;;;4.70;;
10719;SDS011;5411;58.386;15.560;2023-05-10T01:40:37;5.77;;;4.53;;
10719;SDS011;5411;58.386;15.560;2023-05-10T01:43:13;6.03;;;5.00;;
10719;SDS011;5411;58.386;15.560;2023-05-10T01:45:54;5.10;;;4.10;;
10719;SDS011;5411;58.386;15.560;2023-05-10T01:48:38;5.97;;;4.80;;
10719;SDS011;5411;58.386;15.560;2023-05-10T01:51:13;5.77;;;4.80;;
10719;SDS011;5411;58.386;15.560;2023-05-10T01:53:47;7.23;;;5.80;;
10719;SDS011;5411;58.386;15.560;2023-05-10T01:56:18;8.23;;;5.03;;
10719;SDS011;5411;58.386;15.560;2023-05-10T01:58:52;7.43;;;4.70;;
10719;SDS011;5411;58.386;15.560;2023-05-10T02:01:21;5.53;;;4.47;;
10719;SDS011;5411;58.386;15.560;2023-05-10T02:03:52;6.47;;;4.70;;
10719;SDS011;5411;58.386;15.560;2023-05-10T02:06:22;5.70;;;5.10;;
10719;SDS011;5411;58.386;15.560;2023-05-10T02:08:53;5.00;;;4.50;;
10719;SDS011;5411;58.386;15.560;2023-05-10T02:11:21;5.73;;;4.77;;
10719;SDS011;5411;58.386;15.560;2023-05-10T02:13:52;6.43;;;5.57;;
10719;SDS011;5411;58.386;15.560;2023-05-10T02:16:23;8.37;;;4.70;;
10719;SDS011;5411;58.386;15.560;2023-05-10T02:18:55;7.97;;;5.30;;
10719;SDS011;5411;58.386;15.560;2023-05-10T02:21:26;6.37;;;4.77;;
10719;SDS011;5411;58.386;15.560;2023-05-10T02:23:58;8.50;;;5.10;;
10719;SDS011;5411;58.386;15.560;2023-05-10T02:26:29;7.60;;;5.13;;
10719;SDS011;5411;58.386;15.560;2023-05-10T02:29:01;9.17;;;5.97;;
10719;SDS011;5411;58.386;15.560;2023-05-10T02:31:31;7.33;;;4.90;;
10719;SDS011;5411;58.386;15.560;2023-05-10T02:34:02;6.00;;;5.37;;
10719;SDS011;5411;58.386;15.560;2023-05-10T02:36:32;7.83;;;5.70;;
10719;SDS011;5411;58.386;15.560;2023-05-10T02:39:01;6.03;;;5.37;;
10719;SDS011;5411;58.386;15.560;2023-05-10T02:41:31;10.20;;;6.00;;
10719;SDS011;5411;58.386;15.560;2023-05-10T02:44:01;6.33;;;5.27;;
10719;SDS011;5411;58.386;15.560;2023-05-10T02:46:33;6.63;;;5.90;;
10719;SDS011;5411;58.386;15.560;2023-05-10T02:49:03;8.30;;;5.83;;
10719;SDS011;5411;58.386;15.560;2023-05-10T02:51:32;6.10;;;5.50;;
10719;SDS011;5411;58.386;15.560;2023-05-10T02:54:06;8.97;;;5.40;;
10719;SDS011;5411;58.386;15.560;2023-05-10T02:56:40;9.17;;;5.50;;
10719;SDS011;5411;58.386;15.560;2023-05-10T02:59:14;9.93;;;5.63;;
10719;SDS011;5411;58.386;15.560;2023-05-10T03:01:42;8.20;;;5.70;;
10719;SDS011;5411;58.386;15.560;2023-05-10T03:04:12;6.93;;;5.63;;
10719;SDS011;5411;58.386;15.560;2023-05-10T03:06:41;5.90;;;5.33;;
10719;SDS011;5411;58.386;15.560;2023-05-10T03:09:11;6.03;;;5.07;;
10719;SDS011;5411;58.386;15.560;2023-05-10T03:11:47;6.90;;;6.20;;
10719;SDS011;5411;58.386;15.560;2023-05-10T03:14:37;7.60;;;5.20;;
10719;SDS011;5411;58.386;15.560;2023-05-10T03:17:23;6.47;;;5.37;;
10719;SDS011;5411;58.386;15.560;2023-05-10T03:20:06;7.63;;;5.20;;
10719;SDS011;5411;58.386;15.560;2023-05-10T03:22:39;6.30;;;5.50;;
10719;SDS011;5411;58.386;15.560;2023-05-10T03:25:10;8.10;;;5.57;;
10719;SDS011;5411;58.386;15.560;2023-05-10T03:27:40;6.80;;;5.43;;
10719;SDS011;5411;58.386;15.560;2023-05-10T03:30:11;6.03;;;5.40;;
10719;SDS011;5411;58.386;15.560;2023-05-10T03:32:40;6.70;;;5.60;;
10719;SDS011;5411;58.386;15.560;2023-05-10T03:35:10;10.30;;;5.47;;
10719;SDS011;5411;58.386;15.560;2023-05-10T03:37:40;8.43;;;5.63;;
10719;SDS011;5411;58.386;15.560;2023-05-10T03:40:10;8.93;;;5.53;;
10719;SDS011;5411;58.386;15.560;2023-05-10T03:42:39;6.53;;;5.93;;
10719;SDS011;5411;58.386;15.560;2023-05-10T03:45:07;9.23;;;5.53;;
10719;SDS011;5411;58.386;15.560;2023-05-10T03:47:37;7.50;;;5.43;;
10719;SDS011;5411;58.386;15.560;2023-05-10T03:50:06;6.50;;;5.40;;
10719;SDS011;5411;58.386;15.560;2023-05-10T03:52:38;6.53;;;5.60;;
10719;SDS011;5411;58.386;15.560;2023-05-10T03:55:06;7.83;;;5.80;;
10719;SDS011;5411;58.386;15.560;2023-05-10T03:57:35;6.57;;;5.67;;
10719;SDS011;5411;58.386;15.560;2023-05-10T04:00:03;10.63;;;5.37;;
10719;SDS011;5411;58.386;15.560;2023-05-10T04:02:32;6.67;;;5.53;;
10719;SDS011;5411;58.386;15.560;2023-05-10T04:05:01;6.53;;;5.37;;
10719;SDS011;5411;58.386;15.560;2023-05-10T04:07:29;5.57;;;4.90;;
10719;SDS011;5411;58.386;15.560;2023-05-10T04:09:59;7.43;;;5.77;;
10719;SDS011;5411;58.386;15.560;2023-05-10T04:12:29;8.60;;;5.50;;
10719;SDS011;5411;58.386;15.560;2023-05-10T04:14:57;7.97;;;5.60;;
10719;SDS011;5411;58.386;15.560;2023-05-10T04:17:25;6.57;;;5.37;;
10719;SDS011;5411;58.386;15.560;2023-05-10T04:19:54;8.87;;;5.20;;
10719;SDS011;5411;58.386;15.560;2023-05-10T04:22:24;6.43;;;5.33;;
10719;SDS011;5411;58.386;15.560;2023-05-10T04:24:52;7.13;;;5.37;;
10719;SDS011;5411;58.386;15.560;2023-05-10T04:27:23;6.83;;;5.33;;
10719;SDS011;5411;58.386;15.560;2023-05-10T04:29:51;7.37;;;5.07;;
10719;SDS011;5411;58.386;15.560;2023-05-10T04:32:19;6.87;;;5.77;;
10719;SDS011;5411;58.386;15.560;2023-05-10T04:34:48;6.97;;;5.40;;
10719;SDS011;5411;58.386;15.560;2023-05-10T04:37:17;7.40;;;4.87;;
10719;SDS011;5411;58.386;15.560;2023-05-10T04:39:46;6.63;;;4.97;;
10719;SDS011;5411;58.386;15.560;2023-05-10T04:42:15;5.47;;;4.97;;
10719;SDS011;5411;58.386;15.560;2023-05-10T04:44:48;6.17;;;4.77;;
10719;SDS011;5411;58.386;15.560;2023-05-10T04:47:16;8.13;;;5.37;;
10719;SDS011;5411;58.386;15.560;2023-05-10T04:49:45;7.80;;;4.63;;
10719;SDS011;5411;58.386;15.560;2023-05-10T04:52:14;5.93;;;4.63;;
10719;SDS011;5411;58.386;15.560;2023-05-10T04:54:44;7.30;;;5.00;;
10719;SDS011;5411;58.386;15.560;2023-05-10T04:57:12;6.00;;;4.60;;
10719;SDS011;5411;58.386;15.560;2023-05-10T04:59:41;5.67;;;4.47;;
10719;SDS011;5411;58.386;15.560;2023-05-10T05:02:11;8.27;;;4.90;;
10719;SDS011;5411;58.386;15.560;2023-05-10T05:04:39;7.53;;;4.43;;
10719;SDS011;5411;58.386;15.560;2023-05-10T05:07:08;5.70;;;4.00;;
10719;SDS011;5411;58.386;15.560;2023-05-10T05:09:36;7.13;;;4.83;;
10719;SDS011;5411;58.386;15.560;2023-05-10T05:12:05;6.13;;;4.10;;
10719;SDS011;5411;58.386;15.560;2023-05-10T05:14:33;4.70;;;4.07;;
10719;SDS011;5411;58.386;15.560;2023-05-10T05:17:01;7.47;;;4.57;;
10719;SDS011;5411;58.386;15.560;2023-05-10T05:19:32;7.87;;;4.40;;
10719;SDS011;5411;58.386;15.560;2023-05-10T05:22:00;5.53;;;4.00;;
10719;SDS011;5411;58.386;15.560;2023-05-10T05:24:28;8.43;;;4.47;;
10719;SDS011;5411;58.386;15.560;2023-05-10T05:27:02;4.43;;;4.00;;
10719;SDS011;5411;58.386;15.560;2023-05-10T05:29:31;7.30;;;3.97;;
10719;SDS011;5411;58.386;15.560;2023-05-10T05:31:59;11.47;;;4.03;;
10719;SDS011;5411;58.386;15.560;2023-05-10T05:34:27;6.20;;;3.97;;
10719;SDS011;5411;58.386;15.560;2023-05-10T05:36:57;4.63;;;3.63;;
10719;SDS011;5411;58.386;15.560;2023-05-10T05:39:25;7.53;;;3.87;;
10719;SDS011;5411;58.386;15.560;2023-05-10T05:41:55;5.53;;;3.77;;
10719;SDS011;5411;58.386;15.560;2023-05-10T05:44:24;6.27;;;4.07;;
10719;SDS011;5411;58.386;15.560;2023-05-10T05:46:55;5.33;;;4.23;;
10719;SDS011;5411;58.386;15.560;2023-05-10T05:49:23;5.23;;;3.80;;
10719;SDS011;5411;58.386;15.560;2023-05-10T05:51:52;7.23;;;4.07;;
10719;SDS011;5411;58.386;15.560;2023-05-10T05:54:21;4.90;;;3.60;;
10719;SDS011;5411;58.386;15.560;2023-05-10T05:56:50;5.43;;;3.90;;
10719;SDS011;5411;58.386;15.560;2023-05-10T05:59:18;6.17;;;3.97;;
10719;SDS011;5411;58.386;15.560;2023-05-10T06:01:47;5.77;;;3.30;;
10719;SDS011;5411;58.386;15.560;2023-05-10T06:04:15;4.00;;;3.50;;
10719;SDS011;5411;58.386;15.560;2023-05-10T06:06:44;5.93;;;3.50;;
10719;SDS011;5411;58.386;15.560;2023-05-10T06:09:13;3.63;;;3.20;;
10719;SDS011;5411;58.386;15.560;2023-05-10T06:11:42;4.00;;;3.60;;
10719;SDS011;5411;58.386;15.560;2023-05-10T06:14:10;7.50;;;4.30;;
10719;SDS011;5411;58.386;15.560;2023-05-10T06:16:39;5.30;;;4.13;;
10719;SDS011;5411;58.386;15.560;2023-05-10T06:19:07;5.00;;;3.43;;
10719;SDS011;5411;58.386;15.560;2023-05-10T06:21:35;8.20;;;3.57;;
10719;SDS011;5411;58.386;15.560;2023-05-10T06:24:04;6.10;;;3.60;;
10719;SDS011;5411;58.386;15.560;2023-05-10T06:26:33;7.40;;;3.57;;
10719;SDS011;5411;58.386;15.560;2023-05-10T06:29:03;5.17;;;3.73;;
10719;SDS011;5411;58.386;15.560;2023-05-10T06:31:31;6.73;;;3.43;;
10719;SDS011;5411;58.386;15.560;2023-05-10T06:34:00;8.83;;;4.17;;
10719;SDS011;5411;58.386;15.560;2023-05-10T06:36:28;4.20;;;3.23;;
10719;SDS011;5411;58.386;15.560;2023-05-10T06:38:57;4.80;;;3.47;;
10719;SDS011;5411;58.386;15.560;2023-05-10T06:41:25;4.50;;;3.80;;
10719;SDS011;5411;58.386;15.560;2023-05-10T06:43:53;6.30;;;3.70;;
10719;SDS011;5411;58.386;15.560;2023-05-10T06:46:23;6.60;;;3.10;;
10719;SDS011;5411;58.386;15.560;2023-05-10T06:48:52;5.03;;;3.40;;
10719;SDS011;5411;58.386;15.560;2023-05-10T06:51:20;4.07;;;3.00;;
10719;SDS011;5411;58.386;15.560;2023-05-10T06:53:48;5.93;;;3.23;;
10719;SDS011;5411;58.386;15.560;2023-05-10T06:56:17;5.77;;;3.37;;
10719;SDS011;5411;58.386;15.560;2023-05-10T06:58:47;4.20;;;3.20;;
10719;SDS011;5411;58.386;15.560;2023-05-10T07:01:16;6.03;;;3.60;;
10719;SDS011;5411;58.386;15.560;2023-05-10T07:03:46;5.00;;;3.33;;
10719;SDS011;5411;58.386;15.560;2023-05-10T07:06:14;3.80;;;3.20;;
10719;SDS011;5411;58.386;15.560;2023-05-10T07:08:58;3.93;;;3.43;;
10719;SDS011;5411;58.386;15.560;2023-05-10T07:11:26;4.10;;;3.23;;
10719;SDS011;5411;58.386;15.560;2023-05-10T07:13:54;5.40;;;3.20;;
10719;SDS011;5411;58.386;15.560;2023-05-10T07:16:22;6.03;;;3.03;;
10719;SDS011;5411;58.386;15.560;2023-05-10T07:18:52;3.27;;;2.90;;
10719;SDS011;5411;58.386;15.560;2023-05-10T07:21:20;3.07;;;2.77;;
10719;SDS011;5411;58.386;15.560;2023-05-10T07:23:50;6.00;;;3.60;;
10719;SDS011;5411;58.386;15.560;2023-05-10T07:26:19;6.50;;;3.27;;
10719;SDS011;5411;58.386;15.560;2023-05-10T07:28:48;3.33;;;2.80;;
10719;SDS011;5411;58.386;15.560;2023-05-10T07:31:16;6.17;;;3.30;;
10719;SDS011;5411;58.386;15.560;2023-05-10T07:33:45;3.20;;;2.90;;
10719;SDS011;5411;58.386;15.560;2023-05-10T07:36:15;3.17;;;2.70;;
10719;SDS011;5411;58.386;15.560;2023-05-10T07:38:43;3.73;;;2.70;;
10719;SDS011;5411;58.386;15.560;2023-05-10T07:41:11;8.00;;;3.03;;
10719;SDS011;5411;58.386;15.560;2023-05-10T07:43:41;3.13;;;2.60;;
10719;SDS011;5411;58.386;15.560;2023-05-10T07:46:09;3.83;;;2.87;;
10719;SDS011;5411;58.386;15.560;2023-05-10T07:48:40;5.13;;;3.17;;
10719;SDS011;5411;58.386;15.560;2023-05-10T07:51:09;5.73;;;3.00;;
10719;SDS011;5411;58.386;15.560;2023-05-10T07:53:38;5.47;;;2.80;;
10719;SDS011;5411;58.386;15.560;2023-05-10T07:56:22;3.90;;;3.30;;
10719;SDS011;5411;58.386;15.560;2023-05-10T07:58:53;4.27;;;3.10;;
10719;SDS011;5411;58.386;15.560;2023-05-10T08:01:22;5.77;;;3.50;;
10719;SDS011;5411;58.386;15.560;2023-05-10T08:03:50;4.50;;;3.30;;
10719;SDS011;5411;58.386;15.560;2023-05-10T08:06:20;6.10;;;3.17;;
10719;SDS011;5411;58.386;15.560;2023-05-10T08:08:50;5.97;;;2.83;;
10719;SDS011;5411;58.386;15.560;2023-05-10T08:11:20;8.00;;;3.33;;
10719;SDS011;5411;58.386;15.560;2023-05-10T08:13:49;5.93;;;3.50;;
10719;SDS011;5411;58.386;15.560;2023-05-10T08:16:18;3.87;;;3.03;;
10719;SDS011;5411;58.386;15.560;2023-05-10T08:18:46;4.80;;;3.30;;
10719;SDS011;5411;58.386;15.560;2023-05-10T08:21:15;3.30;;;3.00;;
10719;SDS011;5411;58.386;15.560;2023-05-10T08:23:44;5.17;;;3.03;;
10719;SDS011;5411;58.386;15.560;2023-05-10T08:26:22;5.20;;;3.20;;
10719;SDS011;5411;58.386;15.560;2023-05-10T08:28:51;4.63;;;3.20;;
10719;SDS011;5411;58.386;15.560;2023-05-10T08:31:19;4.13;;;3.17;;
10719;SDS011;5411;58.386;15.560;2023-05-10T08:33:47;3.50;;;2.90;;
10719;SDS011;5411;58.386;15.560;2023-05-10T08:36:23;4.33;;;3.10;;
10719;SDS011;5411;58.386;15.560;2023-05-10T08:38:53;4.83;;;3.13;;
10719;SDS011;5411;58.386;15.560;2023-05-10T08:41:23;5.20;;;2.60;;
10719;SDS011;5411;58.386;15.560;2023-05-10T08:43:54;6.20;;;2.60;;
10719;SDS011;5411;58.386;15.560;2023-05-10T08:46:23;3.63;;;2.87;;
10719;SDS011;5411;58.386;15.560;2023-05-10T08:48:51;5.30;;;2.63;;
10719;SDS011;5411;58.386;15.560;2023-05-10T08:51:22;3.97;;;2.73;;
10719;SDS011;5411;58.386;15.560;2023-05-10T08:53:53;5.40;;;2.77;;
10719;SDS011;5411;58.386;15.560;2023-05-10T08:56:23;4.77;;;3.10;;
10719;SDS011;5411;58.386;15.560;2023-05-10T08:58:52;5.43;;;2.80;;
10719;SDS011;5411;58.386;15.560;2023-05-10T09:01:21;4.50;;;2.90;;
10719;SDS011;5411;58.386;15.560;2023-05-10T09:03:50;4.00;;;2.40;;
10719;SDS011;5411;58.386;15.560;2023-05-10T09:06:18;5.20;;;2.67;;
10719;SDS011;5411;58.386;15.560;2023-05-10T09:08:49;3.23;;;2.87;;
10719;SDS011;5411;58.386;15.560;2023-05-10T09:11:18;3.90;;;2.57;;
10719;SDS011;5411;58.386;15.560;2023-05-10T09:13:49;4.67;;;2.60;;
10719;SDS011;5411;58.386;15.560;2023-05-10T09:16:21;3.23;;;2.93;;
10719;SDS011;5411;58.386;15.560;2023-05-10T09:18:49;5.03;;;2.80;;
10719;SDS011;5411;58.386;15.560;2023-05-10T09:21:19;2.90;;;2.70;;
10719;SDS011;5411;58.386;15.560;2023-05-10T09:23:48;2.80;;;2.60;;
10719;SDS011;5411;58.386;15.560;2023-05-10T09:26:22;5.60;;;3.20;;
10719;SDS011;5411;58.386;15.560;2023-05-10T09:28:52;2.60;;;2.40;;
10719;SDS011;5411;58.386;15.560;2023-05-10T09:31:22;4.27;;;3.03;;
10719;SDS011;5411;58.386;15.560;2023-05-10T09:33:51;3.63;;;2.80;;
10719;SDS011;5411;58.386;15.560;2023-05-10T09:36:21;3.60;;;2.90;;
10719;SDS011;5411;58.386;15.560;2023-05-10T09:38:49;3.27;;;2.90;;
10719;SDS011;5411;58.386;15.560;2023-05-10T09:41:19;3.40;;;2.37;;
10719;SDS011;5411;58.386;15.560;2023-05-10T09:43:49;3.63;;;3.00;;
10719;SDS011;5411;58.386;15.560;2023-05-10T09:46:24;4.60;;;2.97;;
10719;SDS011;5411;58.386;15.560;2023-05-10T09:48:53;4.50;;;2.80;;
10719;SDS011;5411;58.386;15.560;2023-05-10T09:51:21;3.37;;;2.60;;
10719;SDS011;5411;58.386;15.560;2023-05-10T09:53:50;5.50;;;2.80;;
10719;SDS011;5411;58.386;15.560;2023-05-10T09:56:37;3.43;;;3.13;;
10719;SDS011;5411;58.386;15.560;2023-05-10T09:59:07;3.73;;;2.60;;
10719;SDS011;5411;58.386;15.560;2023-05-10T10:01:40;7.20;;;2.87;;
10719;SDS011;5411;58.386;15.560;2023-05-10T10:04:09;3.67;;;3.03;;
10719;SDS011;5411;58.386;15.560;2023-05-10T10:06:38;6.80;;;3.10;;
10719;SDS011;5411;58.386;15.560;2023-05-10T10:09:07;3.63;;;2.87;;
10719;SDS011;5411;58.386;15.560;2023-05-10T10:11:36;4.90;;;2.90;;
10719;SDS011;5411;58.386;15.560;2023-05-10T10:14:07;3.90;;;2.87;;
10719;SDS011;5411;58.386;15.560;2023-05-10T10:16:36;4.53;;;3.03;;
10719;SDS011;5411;58.386;15.560;2023-05-10T10:19:22;4.83;;;2.90;;
10719;SDS011;5411;58.386;15.560;2023-05-10T10:21:50;5.57;;;2.90;;
10719;SDS011;5411;58.386;15.560;2023-05-10T10:24:21;4.83;;;2.90;;
10719;SDS011;5411;58.386;15.560;2023-05-10T10:26:49;3.37;;;2.70;;
10719;SDS011;5411;58.386;15.560;2023-05-10T10:29:24;2.93;;;2.63;;
10719;SDS011;5411;58.386;15.560;2023-05-10T10:32:03;3.53;;;2.40;;
10719;SDS011;5411;58.386;15.560;2023-05-10T10:34:41;7.10;;;2.67;;
10719;SDS011;5411;58.386;15.560;2023-05-10T10:37:19;3.17;;;2.87;;
10719;SDS011;5411;58.386;15.560;2023-05-10T10:39:50;8.00;;;2.80;;
10719;SDS011;5411;58.386;15.560;2023-05-10T10:45:13;3.40;;;2.83;;
10719;SDS011;5411;58.386;15.560;2023-05-10T10:47:44;6.67;;;2.40;;
10719;SDS011;5411;58.386;15.560;2023-05-10T10:50:14;4.67;;;2.87;;
10719;SDS011;5411;58.386;15.560;2023-05-10T10:52:45;3.00;;;2.67;;
10719;SDS011;5411;58.386;15.560;2023-05-10T10:55:16;2.83;;;2.50;;
10719;SDS011;5411;58.386;15.560;2023-05-10T10:57:49;3.27;;;2.80;;
10719;SDS011;5411;58.386;15.560;2023-05-10T11:00:22;5.00;;;2.97;;
10719;SDS011;5411;58.386;15.560;2023-05-10T11:02:55;5.00;;;2.60;;
10719;SDS011;5411;58.386;15.560;2023-05-10T11:08:15;3.30;;;2.70;;
10719;SDS011;5411;58.386;15.560;2023-05-10T11:13:34;4.43;;;3.27;;
10719;SDS011;5411;58.386;15.560;2023-05-10T11:16:10;3.13;;;2.80;;
10719;SDS011;5411;58.386;15.560;2023-05-10T11:18:52;3.97;;;2.50;;
10719;SDS011;5411;58.386;15.560;2023-05-10T11:21:44;4.73;;;2.80;;
10719;SDS011;5411;58.386;15.560;2023-05-10T11:24:20;3.87;;;3.10;;
10719;SDS011;5411;58.386;15.560;2023-05-10T11:26:50;4.90;;;3.07;;
10719;SDS011;5411;58.386;15.560;2023-05-10T11:29:18;7.33;;;3.10;;
10719;SDS011;5411;58.386;15.560;2023-05-10T11:31:51;5.43;;;3.10;;
10719;SDS011;5411;58.386;15.560;2023-05-10T11:34:22;3.20;;;2.47;;
10719;SDS011;5411;58.386;15.560;2023-05-10T11:36:56;3.20;;;2.90;;
10719;SDS011;5411;58.386;15.560;2023-05-10T11:39:25;6.73;;;3.17;;
10719;SDS011;5411;58.386;15.560;2023-05-10T11:41:55;3.63;;;2.97;;
10719;SDS011;5411;58.386;15.560;2023-05-10T11:44:24;4.67;;;2.87;;
10719;SDS011;5411;58.386;15.560;2023-05-10T11:46:58;5.00;;;3.20;;
10719;SDS011;5411;58.386;15.560;2023-05-10T11:49:26;3.00;;;2.70;;
10719;SDS011;5411;58.386;15.560;2023-05-10T11:52:04;4.00;;;2.63;;
10719;SDS011;5411;58.386;15.560;2023-05-10T11:54:33;4.00;;;3.10;;
10719;SDS011;5411;58.386;15.560;2023-05-10T11:57:02;4.43;;;2.70;;
10719;SDS011;5411;58.386;15.560;2023-05-10T11:59:31;3.27;;;2.70;;
10719;SDS011;5411;58.386;15.560;2023-05-10T12:01:59;5.93;;;3.10;;
10719;SDS011;5411;58.386;15.560;2023-05-10T12:04:29;4.73;;;2.90;;
10719;SDS011;5411;58.386;15.560;2023-05-10T12:06:58;5.93;;;3.00;;
10719;SDS011;5411;58.386;15.560;2023-05-10T12:09:28;4.10;;;3.20;;
10719;SDS011;5411;58.386;15.560;2023-05-10T12:12:09;2.97;;;2.67;;
10719;SDS011;5411;58.386;15.560;2023-05-10T12:14:38;3.13;;;2.80;;
10719;SDS011;5411;58.386;15.560;2023-05-10T12:17:06;5.70;;;2.70;;
10719;SDS011;5411;58.386;15.560;2023-05-10T12:19:38;4.33;;;2.83;;
10719;SDS011;5411;58.386;15.560;2023-05-10T12:22:07;3.03;;;2.73;;
10719;SDS011;5411;58.386;15.560;2023-05-10T12:24:51;4.10;;;3.13;;
10719;SDS011;5411;58.386;15.560;2023-05-10T12:27:19;6.67;;;3.40;;
10719;SDS011;5411;58.386;15.560;2023-05-10T12:29:47;5.23;;;2.80;;
10719;SDS011;5411;58.386;15.560;2023-05-10T12:32:16;5.30;;;2.57;;
10719;SDS011;5411;58.386;15.560;2023-05-10T12:34:46;3.43;;;2.77;;
10719;SDS011;5411;58.386;15.560;2023-05-10T12:37:14;3.23;;;2.93;;
10719;SDS011;5411;58.386;15.560;2023-05-10T12:39:43;6.30;;;3.33;;
10719;SDS011;5411;58.386;15.560;2023-05-10T12:42:14;3.87;;;2.97;;
10719;SDS011;5411;58.386;15.560;2023-05-10T12:44:42;4.83;;;3.07;;
10719;SDS011;5411;58.386;15.560;2023-05-10T12:47:11;3.60;;;3.13;;
10719;SDS011;5411;58.386;15.560;2023-05-10T12:49:39;5.90;;;2.67;;
10719;SDS011;5411;58.386;15.560;2023-05-10T12:52:12;3.43;;;3.07;;
10719;SDS011;5411;58.386;15.560;2023-05-10T12:54:40;5.03;;;2.80;;
10719;SDS011;5411;58.386;15.560;2023-05-10T12:57:08;3.33;;;3.03;;
10719;SDS011;5411;58.386;15.560;2023-05-10T12:59:44;3.57;;;2.90;;
10719;SDS011;5411;58.386;15.560;2023-05-10T13:02:12;6.77;;;3.27;;
10719;SDS011;5411;58.386;15.560;2023-05-10T13:04:41;4.17;;;2.90;;
10719;SDS011;5411;58.386;15.560;2023-05-10T13:07:10;4.27;;;2.77;;
10719;SDS011;5411;58.386;15.560;2023-05-10T13:09:38;3.47;;;2.40;;
10719;SDS011;5411;58.386;15.560;2023-05-10T13:12:09;3.17;;;2.87;;
10719;SDS011;5411;58.386;15.560;2023-05-10T13:14:48;2.87;;;2.53;;
10719;SDS011;5411;58.386;15.560;2023-05-10T13:17:16;5.63;;;2.90;;
10719;SDS011;5411;58.386;15.560;2023-05-10T13:19:44;2.57;;;2.23;;
10719;SDS011;5411;58.386;15.560;2023-05-10T13:22:13;3.67;;;2.37;;
10719;SDS011;5411;58.386;15.560;2023-05-10T13:24:48;3.40;;;2.73;;
10719;SDS011;5411;58.386;15.560;2023-05-10T13:27:16;3.07;;;2.70;;
10719;SDS011;5411;58.386;15.560;2023-05-10T13:29:49;3.07;;;2.77;;
10719;SDS011;5411;58.386;15.560;2023-05-10T13:32:18;5.30;;;3.13;;
10719;SDS011;5411;58.386;15.560;2023-05-10T13:34:46;3.67;;;2.67;;
10719;SDS011;5411;58.386;15.560;2023-05-10T13:37:15;3.40;;;2.50;;
10719;SDS011;5411;58.386;15.560;2023-05-10T13:39:43;3.30;;;3.00;;
10719;SDS011;5411;58.386;15.560;2023-05-10T13:42:15;2.83;;;2.63;;
10719;SDS011;5411;58.386;15.560;2023-05-10T13:44:43;3.90;;;2.83;;
10719;SDS011;5411;58.386;15.560;2023-05-10T13:47:16;4.40;;;3.10;;
10719;SDS011;5411;58.386;15.560;2023-05-10T13:49:44;3.50;;;2.70;;
10719;SDS011;5411;58.386;15.560;2023-05-10T13:52:13;5.90;;;3.03;;
10719;SDS011;5411;58.386;15.560;2023-05-10T13:54:41;4.57;;;3.00;;
10719;SDS011;5411;58.386;15.560;2023-05-10T13:57:09;6.60;;;2.77;;
10719;SDS011;5411;58.386;15.560;2023-05-10T13:59:40;2.90;;;2.60;;
10719;SDS011;5411;58.386;15.560;2023-05-10T14:02:11;4.70;;;2.57;;
10719;SDS011;5411;58.386;15.560;2023-05-10T14:04:41;3.93;;;2.63;;
10719;SDS011;5411;58.386;15.560;2023-05-10T14:07:09;2.70;;;2.50;;
10719;SDS011;5411;58.386;15.560;2023-05-10T14:09:38;4.50;;;2.90;;
10719;SDS011;5411;58.386;15.560;2023-05-10T14:12:06;3.17;;;2.70;;
10719;SDS011;5411;58.386;15.560;2023-05-10T14:14:36;3.10;;;2.67;;
10719;SDS011;5411;58.386;15.560;2023-05-10T14:17:04;3.60;;;2.80;;
10719;SDS011;5411;58.386;15.560;2023-05-10T14:19:43;5.70;;;2.70;;
10719;SDS011;5411;58.386;15.560;2023-05-10T14:22:11;2.83;;;2.53;;
10719;SDS011;5411;58.386;15.560;2023-05-10T14:24:39;4.00;;;2.73;;
10719;SDS011;5411;58.386;15.560;2023-05-10T14:27:10;4.90;;;3.00;;
10719;SDS011;5411;58.386;15.560;2023-05-10T14:29:38;4.80;;;2.80;;
10719;SDS011;5411;58.386;15.560;2023-05-10T14:32:07;2.80;;;2.57;;
10719;SDS011;5411;58.386;15.560;2023-05-10T14:34:38;4.87;;;2.57;;
10719;SDS011;5411;58.386;15.560;2023-05-10T14:37:09;4.23;;;2.97;;
10719;SDS011;5411;58.386;15.560;2023-05-10T14:39:38;3.93;;;2.57;;
10719;SDS011;5411;58.386;15.560;2023-05-10T14:42:06;4.60;;;2.97;;
10719;SDS011;5411;58.386;15.560;2023-05-10T14:44:35;4.10;;;2.60;;
10719;SDS011;5411;58.386;15.560;2023-05-10T14:47:04;2.77;;;2.40;;
10719;SDS011;5411;58.386;15.560;2023-05-10T14:49:33;5.37;;;3.23;;
10719;SDS011;5411;58.386;15.560;2023-05-10T14:52:01;3.37;;;2.50;;
10719;SDS011;5411;58.386;15.560;2023-05-10T14:54:31;4.63;;;2.90;;
10719;SDS011;5411;58.386;15.560;2023-05-10T14:57:02;2.90;;;2.60;;
10719;SDS011;5411;58.386;15.560;2023-05-10T14:59:30;3.80;;;2.90;;
10719;SDS011;5411;58.386;15.560;2023-05-10T15:02:02;3.47;;;3.17;;
10719;SDS011;5411;58.386;15.560;2023-05-10T15:04:39;3.27;;;2.60;;
10719;SDS011;5411;58.386;15.560;2023-05-10T15:07:07;4.53;;;2.97;;
10719;SDS011;5411;58.386;15.560;2023-05-10T15:09:37;4.63;;;3.20;;
10719;SDS011;5411;58.386;15.560;2023-05-10T15:12:06;3.83;;;3.27;;
10719;SDS011;5411;58.386;15.560;2023-05-10T15:14:34;4.27;;;3.00;;
10719;SDS011;5411;58.386;15.560;2023-05-10T15:17:03;3.80;;;2.63;;